createdAt,value
2022-12-09T00:00:44.023Z,9.63
2022-12-09T00:03:10.796Z,9.45
2022-12-09T00:05:40.153Z,9.52
2022-12-09T00:08:06.874Z,8.73
2022-12-09T00:10:33.580Z,8.63
2022-12-09T00:13:00.437Z,8.10
2022-12-09T00:15:27.288Z,9.02
2022-12-09T00:17:53.989Z,8.30
2022-12-09T00:20:20.960Z,8.02
2022-12-09T00:22:47.876Z,7.65
2022-12-09T00:25:14.486Z,7.93
2022-12-09T00:27:41.613Z,7.35
2022-12-09T00:30:08.968Z,7.55
2022-12-09T00:32:35.940Z,6.97
2022-12-09T00:35:04.432Z,7.47
2022-12-09T00:37:31.112Z,6.50
2022-12-09T00:39:57.782Z,7.78
2022-12-09T00:42:24.412Z,8.13
2022-12-09T00:44:51.153Z,7.60
2022-12-09T00:47:18.113Z,7.55
2022-12-09T00:49:44.775Z,7.55
2022-12-09T00:52:11.415Z,7.05
2022-12-09T00:54:38.316Z,7.20
2022-12-09T00:57:06.067Z,7.53
2022-12-09T00:59:32.873Z,6.57
2022-12-09T01:01:59.591Z,6.03
2022-12-09T01:04:26.566Z,6.00
2022-12-09T01:06:53.350Z,5.35
2022-12-09T01:09:20.306Z,6.43
2022-12-09T01:11:47.083Z,6.28
2022-12-09T01:14:14.356Z,5.97
2022-12-09T01:16:41.246Z,6.43
2022-12-09T01:19:13.290Z,6.70
2022-12-09T01:21:40.235Z,6.55
2022-12-09T01:24:10.138Z,7.35
2022-12-09T01:26:37.770Z,6.78
2022-12-09T01:29:04.839Z,6.00
2022-12-09T01:31:31.680Z,6.97
2022-12-09T01:33:58.718Z,6.93
2022-12-09T01:36:28.424Z,5.70
2022-12-09T01:38:57.727Z,6.88
2022-12-09T01:41:25.634Z,7.13
2022-12-09T01:44:18.034Z,6.72
2022-12-09T01:46:45.506Z,6.55
2022-12-09T01:49:18.299Z,6.30
2022-12-09T01:54:14.000Z,5.45
2022-12-09T01:56:41.561Z,6.13
2022-12-09T01:59:14.576Z,5.93
2022-12-09T02:01:45.737Z,6.70
2022-12-09T02:04:12.888Z,6.70
2022-12-09T02:06:39.916Z,6.03
2022-12-09T02:09:07.344Z,6.18
2022-12-09T02:11:43.106Z,7.00
2022-12-09T02:14:28.618Z,6.65
2022-12-09T02:19:47.053Z,6.50
2022-12-09T02:22:17.674Z,5.45
2022-12-09T02:25:06.430Z,6.43
2022-12-09T02:27:55.607Z,6.40
2022-12-09T02:30:38.485Z,7.22
2022-12-09T02:33:23.962Z,7.47
2022-12-09T02:38:28.867Z,6.40
2022-12-09T02:41:16.476Z,7.72
2022-12-09T02:43:50.691Z,6.25
2022-12-09T02:46:21.862Z,5.75
2022-12-09T02:48:54.192Z,6.80
2022-12-09T02:51:22.564Z,6.53
2022-12-09T02:53:55.561Z,6.72
2022-12-09T02:56:23.581Z,5.97
2022-12-09T02:58:50.392Z,5.72
2022-12-09T03:01:29.477Z,5.00
2022-12-09T03:03:56.711Z,6.45
2022-12-09T03:06:30.793Z,5.60
2022-12-09T03:09:09.759Z,6.03
2022-12-09T03:14:24.135Z,6.18
2022-12-09T03:17:00.588Z,5.90
2022-12-09T03:19:33.710Z,7.10
2022-12-09T03:22:06.007Z,6.78
2022-12-09T03:24:38.220Z,6.25
2022-12-09T03:27:09.163Z,5.82
2022-12-09T03:29:39.367Z,6.20
2022-12-09T03:32:10.210Z,6.40
2022-12-09T03:34:40.866Z,6.05
2022-12-09T03:37:09.278Z,5.28
2022-12-09T03:39:38.695Z,5.28
2022-12-09T03:42:15.287Z,5.13
2022-12-09T03:44:49.338Z,6.75
2022-12-09T03:47:16.288Z,6.45
2022-12-09T03:49:43.527Z,6.22
2022-12-09T03:52:27.665Z,6.45
2022-12-09T03:55:01.210Z,6.93
2022-12-09T03:57:29.205Z,5.78
2022-12-09T04:00:01.524Z,6.82
2022-12-09T04:02:29.352Z,6.20
2022-12-09T04:04:56.337Z,6.40
2022-12-09T04:07:23.520Z,7.15
2022-12-09T04:09:50.632Z,6.43
2022-12-09T04:12:17.644Z,5.78
2022-12-09T04:14:45.137Z,5.35
2022-12-09T04:17:12.220Z,6.20
2022-12-09T04:19:38.881Z,6.07
2022-12-09T04:22:05.651Z,6.50
2022-12-09T04:24:32.513Z,5.68
2022-12-09T04:26:59.535Z,6.80
2022-12-09T04:29:26.320Z,6.22
2022-12-09T04:31:53.218Z,5.55
2022-12-09T04:34:20.013Z,6.60
2022-12-09T04:36:47.932Z,6.07
2022-12-09T04:39:14.700Z,5.40
2022-12-09T04:41:41.358Z,6.13
2022-12-09T04:44:07.972Z,5.93
2022-12-09T04:46:35.004Z,6.50
2022-12-09T04:49:01.868Z,6.88
2022-12-09T04:51:31.359Z,6.45
2022-12-09T04:54:02.393Z,6.53
2022-12-09T04:56:29.465Z,5.13
2022-12-09T04:58:56.740Z,6.60
2022-12-09T05:01:30.281Z,7.20
2022-12-09T05:03:58.553Z,7.60
2022-12-09T05:06:26.058Z,7.18
2022-12-09T05:08:53.374Z,6.53
2022-12-09T05:11:21.622Z,6.53
2022-12-09T05:13:48.608Z,7.63
2022-12-09T05:16:17.715Z,6.72
2022-12-09T05:18:46.564Z,6.47
2022-12-09T05:21:19.358Z,7.20
2022-12-09T05:26:16.251Z,5.80
2022-12-09T05:28:43.631Z,7.80
2022-12-09T05:31:14.821Z,7.90
2022-12-09T05:33:42.298Z,7.28
2022-12-09T05:36:11.231Z,6.13
2022-12-09T05:38:39.162Z,7.30
2022-12-09T05:41:06.665Z,6.38
2022-12-09T05:43:34.581Z,6.20
2022-12-09T05:46:02.241Z,6.15
2022-12-09T05:48:29.680Z,6.05
2022-12-09T05:51:23.283Z,7.13
2022-12-09T05:53:50.497Z,6.65
2022-12-09T05:56:18.859Z,6.93
2022-12-09T05:58:46.209Z,7.45
2022-12-09T06:01:13.682Z,7.32
2022-12-09T06:03:40.655Z,6.35
2022-12-09T06:06:10.450Z,8.00
2022-12-09T06:08:38.106Z,7.95
2022-12-09T06:11:09.705Z,7.75
2022-12-09T06:13:36.628Z,8.60
2022-12-09T06:16:07.739Z,6.78
2022-12-09T06:18:35.259Z,7.25
2022-12-09T06:21:09.352Z,7.47
2022-12-09T06:23:37.929Z,6.72
2022-12-09T06:26:05.674Z,8.15
2022-12-09T06:28:33.420Z,7.57
2022-12-09T06:31:00.890Z,8.90
2022-12-09T06:36:14.562Z,9.05
2022-12-09T06:38:41.913Z,9.13
2022-12-09T06:41:11.251Z,9.25
2022-12-09T06:43:38.894Z,9.25
2022-12-09T06:46:17.151Z,7.05
2022-12-09T06:48:44.621Z,7.43
2022-12-09T06:51:12.096Z,8.98
2022-12-09T06:53:39.172Z,8.88
2022-12-09T06:56:11.815Z,7.53
2022-12-09T06:58:43.690Z,8.73
2022-12-09T07:01:19.918Z,8.05
2022-12-09T07:03:50.300Z,7.30
2022-12-09T07:06:27.994Z,8.45
2022-12-09T07:08:56.696Z,7.30
2022-12-09T07:11:24.079Z,7.97
2022-12-09T07:13:51.568Z,8.38
2022-12-09T07:16:18.600Z,8.80
2022-12-09T07:18:45.528Z,9.55
2022-12-09T07:21:15.736Z,10.88
2022-12-09T07:23:42.884Z,10.68
2022-12-09T07:26:10.214Z,10.27
2022-12-09T07:28:39.377Z,10.05
2022-12-09T07:31:06.500Z,8.25
2022-12-09T07:33:33.596Z,9.05
2022-12-09T07:36:00.957Z,7.88
2022-12-09T07:38:30.403Z,8.57
2022-12-09T07:41:05.697Z,8.05
2022-12-09T07:43:38.566Z,7.15
2022-12-09T07:46:09.194Z,6.90
2022-12-09T07:48:36.126Z,7.28
2022-12-09T07:51:04.745Z,8.75
2022-12-09T07:53:34.572Z,7.55
2022-12-09T07:56:03.318Z,8.80
2022-12-09T07:58:30.509Z,8.73
2022-12-09T08:00:57.235Z,8.65
2022-12-09T08:03:23.996Z,8.13
2022-12-09T08:05:52.911Z,8.95
2022-12-09T08:08:19.977Z,8.25
2022-12-09T08:10:47.083Z,7.60
2022-12-09T08:13:14.252Z,6.80
2022-12-09T08:15:41.566Z,8.70
2022-12-09T08:18:08.693Z,7.35
2022-12-09T08:20:37.275Z,8.27
2022-12-09T08:23:04.548Z,6.90
2022-12-09T08:25:31.680Z,7.93
2022-12-09T08:27:59.450Z,8.15
2022-12-09T08:30:26.481Z,9.80
2022-12-09T08:32:53.407Z,9.65
2022-12-09T08:35:21.031Z,10.05
2022-12-09T08:37:48.482Z,9.90
2022-12-09T08:40:15.644Z,9.48
2022-12-09T08:42:42.608Z,10.43
2022-12-09T08:45:09.975Z,9.57
2022-12-09T08:47:37.173Z,9.85
2022-12-09T08:50:05.268Z,8.38
2022-12-09T08:52:38.724Z,7.45
2022-12-09T08:55:07.748Z,9.35
2022-12-09T08:57:34.513Z,10.40
2022-12-09T09:00:01.386Z,11.35
2022-12-09T09:02:28.277Z,9.32
2022-12-09T09:04:55.805Z,9.85
2022-12-09T09:07:22.798Z,9.45
2022-12-09T09:09:49.758Z,8.88
2022-12-09T09:12:16.833Z,9.38
2022-12-09T09:14:43.489Z,8.50
2022-12-09T09:17:11.001Z,8.45
2022-12-09T09:19:38.337Z,8.95
2022-12-09T09:22:05.057Z,8.40
2022-12-09T09:24:31.976Z,8.73
2022-12-09T09:26:58.950Z,7.80
2022-12-09T09:29:25.775Z,9.10
2022-12-09T09:31:57.461Z,9.05
2022-12-09T09:34:26.277Z,8.18
2022-12-09T09:36:54.924Z,8.32
2022-12-09T09:39:22.408Z,8.50
2022-12-09T09:41:56.605Z,7.85
2022-12-09T09:44:27.248Z,8.88
2022-12-09T09:46:55.779Z,8.55
2022-12-09T09:49:43.945Z,7.45
2022-12-09T09:52:20.501Z,7.93
2022-12-09T09:54:47.933Z,7.97
2022-12-09T09:57:37.876Z,8.20
2022-12-09T10:00:20.561Z,7.45
2022-12-09T10:03:04.255Z,7.00
2022-12-09T10:05:41.321Z,7.43
2022-12-09T10:08:37.714Z,6.40
2022-12-09T10:11:36.374Z,7.15
2022-12-09T10:14:21.186Z,6.95
2022-12-09T10:17:00.619Z,7.22
2022-12-09T10:19:39.524Z,6.88
2022-12-09T10:24:48.450Z,6.82
2022-12-09T10:27:33.669Z,8.32
2022-12-09T10:30:07.703Z,7.57
2022-12-09T10:32:36.919Z,7.18
2022-12-09T10:35:26.893Z,5.97
2022-12-09T10:37:55.767Z,5.85
2022-12-09T10:40:30.348Z,5.05
2022-12-09T10:43:17.667Z,6.18
2022-12-09T10:48:38.688Z,5.93
2022-12-09T10:51:21.649Z,6.07
2022-12-09T10:54:00.060Z,5.38
2022-12-09T10:56:36.830Z,6.00
2022-12-09T10:59:24.186Z,5.88
2022-12-09T11:01:56.572Z,6.20
2022-12-09T11:04:30.026Z,5.93
2022-12-09T11:07:19.844Z,7.25
2022-12-09T11:10:16.823Z,6.30
2022-12-09T11:12:44.917Z,5.80
2022-12-09T11:15:38.907Z,6.43
2022-12-09T11:18:28.458Z,6.70
2022-12-09T11:21:01.959Z,5.57
2022-12-09T11:23:29.877Z,5.60
2022-12-09T11:26:06.060Z,6.22
2022-12-09T11:28:34.437Z,6.53
2022-12-09T11:31:28.320Z,6.68
2022-12-09T11:33:56.962Z,5.80
2022-12-09T11:36:32.632Z,5.63
2022-12-09T11:39:27.949Z,5.50
2022-12-09T11:42:16.940Z,5.35
2022-12-09T11:44:50.533Z,5.28
2022-12-09T11:47:57.364Z,5.70
2022-12-09T11:50:24.971Z,5.25
2022-12-09T11:53:10.561Z,6.18
2022-12-09T11:58:21.142Z,5.43
2022-12-09T12:01:15.729Z,5.13
2022-12-09T12:03:50.032Z,6.10
2022-12-09T12:06:25.085Z,5.10
2022-12-09T12:08:57.944Z,4.65
2022-12-09T12:11:34.411Z,5.90
2022-12-09T12:14:06.342Z,5.15
2022-12-09T12:17:15.233Z,6.22
2022-12-09T12:19:43.555Z,6.07
2022-12-09T12:22:37.451Z,6.30
2022-12-09T12:25:24.341Z,6.50
2022-12-09T12:28:16.091Z,6.45
2022-12-09T12:31:04.992Z,6.82
2022-12-09T12:36:56.647Z,9.95
2022-12-09T12:39:54.536Z,9.10
2022-12-09T12:43:08.061Z,7.03
2022-12-09T12:46:13.212Z,5.15
2022-12-09T12:49:03.145Z,5.53
2022-12-09T12:51:54.420Z,5.18
2022-12-09T12:54:33.344Z,6.50
2022-12-09T12:57:32.320Z,6.63
2022-12-09T13:00:13.206Z,5.13
2022-12-09T13:03:09.003Z,5.82
2022-12-09T13:05:41.345Z,6.00
2022-12-09T13:08:19.069Z,5.72
2022-12-09T13:10:55.647Z,5.07
2022-12-09T13:13:38.395Z,4.55
2022-12-09T13:16:28.650Z,5.97
2022-12-09T13:19:14.211Z,6.57
2022-12-09T13:24:19.560Z,6.10
2022-12-09T13:27:39.579Z,5.10
2022-12-09T13:30:16.813Z,5.75
2022-12-09T13:33:17.398Z,5.40
2022-12-09T13:36:06.053Z,5.60
2022-12-09T13:38:40.651Z,5.72
2022-12-09T13:41:26.077Z,5.97
2022-12-09T13:44:19.284Z,6.53
2022-12-09T13:46:45.931Z,6.30
2022-12-09T13:49:23.818Z,7.40
2022-12-09T13:51:55.108Z,7.72
2022-12-09T13:54:28.014Z,8.30
2022-12-09T13:57:24.018Z,6.88
2022-12-09T13:59:52.041Z,6.47
2022-12-09T14:02:50.237Z,7.35
2022-12-09T14:05:26.118Z,7.10
2022-12-09T14:08:20.892Z,7.60
2022-12-09T14:10:50.279Z,7.28
2022-12-09T14:13:37.041Z,7.80
2022-12-09T14:16:28.622Z,6.97
2022-12-09T14:18:56.786Z,7.30
2022-12-09T14:21:31.108Z,7.43
2022-12-09T14:24:11.209Z,7.80
2022-12-09T14:26:46.735Z,7.57
2022-12-09T14:29:42.417Z,7.30
2022-12-09T14:32:22.630Z,8.32
2022-12-09T14:35:11.660Z,9.25
2022-12-09T14:38:06.265Z,7.03
2022-12-09T14:40:37.218Z,8.20
2022-12-09T14:43:28.496Z,7.43
2022-12-09T14:46:01.874Z,8.40
2022-12-09T14:48:35.636Z,8.40
2022-12-09T14:51:43.994Z,8.95
2022-12-09T14:54:37.589Z,9.23
2022-12-09T14:57:19.634Z,9.65
2022-12-09T14:59:52.185Z,7.70
2022-12-09T15:02:30.672Z,7.70
2022-12-09T15:05:00.171Z,8.63
2022-12-09T15:07:29.303Z,8.65
2022-12-09T15:10:00.342Z,7.10
2022-12-09T15:12:36.087Z,8.50
2022-12-09T15:15:13.350Z,6.93
2022-12-09T15:17:54.072Z,7.75
2022-12-09T15:20:39.249Z,7.03
2022-12-09T15:23:24.766Z,7.75
2022-12-09T15:28:26.388Z,8.65
2022-12-09T15:31:05.866Z,9.18
2022-12-09T15:36:10.986Z,8.77
2022-12-09T15:38:45.538Z,7.63
2022-12-09T15:41:30.588Z,7.72
2022-12-09T15:44:01.295Z,7.63
2022-12-09T15:46:29.170Z,7.63
2022-12-09T15:48:58.266Z,7.93
2022-12-09T15:51:26.722Z,7.18
2022-12-09T15:54:04.730Z,6.97
2022-12-09T15:56:40.840Z,7.30
2022-12-09T15:59:14.706Z,7.05
2022-12-09T16:01:51.444Z,6.60
2022-12-09T16:04:24.482Z,5.80
2022-12-09T16:06:51.409Z,6.60
2022-12-09T16:09:20.127Z,6.70
2022-12-09T16:11:49.991Z,7.55
2022-12-09T16:14:18.938Z,8.05
2022-12-09T16:16:55.704Z,8.43
2022-12-09T16:19:31.145Z,7.63
2022-12-09T16:22:03.828Z,6.60
2022-12-09T16:24:50.703Z,7.40
2022-12-09T16:27:24.800Z,7.32
2022-12-09T16:29:56.811Z,6.57
2022-12-09T16:32:31.428Z,8.30
2022-12-09T16:35:11.205Z,8.60
2022-12-09T16:37:40.998Z,9.30
2022-12-09T16:40:45.830Z,9.27
2022-12-09T16:43:15.555Z,8.93
2022-12-09T16:45:44.500Z,7.78
2022-12-09T16:48:11.706Z,9.15
2022-12-09T16:51:06.181Z,8.55
2022-12-09T16:53:37.534Z,10.73
2022-12-09T16:56:04.454Z,9.98
2022-12-09T16:58:35.153Z,11.63
2022-12-09T17:01:03.945Z,10.05
2022-12-09T17:03:42.817Z,10.55
2022-12-09T17:06:14.291Z,8.57
2022-12-09T17:08:41.252Z,8.20
2022-12-09T17:11:07.837Z,8.35
2022-12-09T17:13:34.929Z,8.07
2022-12-09T17:16:01.744Z,8.45
2022-12-09T17:18:29.203Z,8.10
2022-12-09T17:21:03.959Z,8.05
2022-12-09T17:23:37.733Z,9.57
2022-12-09T17:26:08.740Z,10.88
2022-12-09T17:28:35.761Z,9.60
2022-12-09T17:31:08.121Z,8.30
2022-12-09T17:33:34.871Z,9.38
2022-12-09T17:36:01.470Z,9.05
2022-12-09T17:38:32.094Z,8.93
2022-12-09T17:41:07.755Z,9.02
2022-12-09T17:43:34.981Z,7.93
2022-12-09T17:46:03.332Z,9.50
2022-12-09T17:48:31.231Z,9.20
2022-12-09T17:50:57.866Z,7.93
2022-12-09T17:53:24.839Z,6.88
2022-12-09T17:55:51.485Z,7.95
2022-12-09T17:58:18.090Z,6.38
2022-12-09T18:00:44.831Z,7.00
2022-12-09T18:03:17.845Z,7.18
2022-12-09T18:05:48.962Z,7.25
2022-12-09T18:08:15.643Z,9.10
2022-12-09T18:10:44.077Z,7.80
2022-12-09T18:13:10.636Z,7.13
2022-12-09T18:15:37.459Z,7.97
2022-12-09T18:18:04.255Z,7.22
2022-12-09T18:20:30.875Z,7.82
2022-12-09T18:22:57.655Z,7.88
2022-12-09T18:25:24.381Z,7.22
2022-12-09T18:27:51.055Z,6.93
2022-12-09T18:30:17.820Z,8.60
2022-12-09T18:32:44.421Z,8.93
2022-12-09T18:35:11.123Z,7.72
2022-12-09T18:37:37.778Z,7.78
2022-12-09T18:40:05.461Z,7.78
2022-12-09T18:42:32.375Z,8.32
2022-12-09T18:44:59.035Z,7.80
2022-12-09T18:47:25.678Z,7.95
2022-12-09T18:49:52.461Z,8.40
2022-12-09T18:52:19.139Z,9.15
2022-12-09T18:54:47.611Z,9.48
2022-12-09T18:57:14.426Z,7.95
2022-12-09T18:59:41.119Z,8.00
2022-12-09T19:02:10.498Z,8.00
2022-12-09T19:04:37.524Z,8.32
2022-12-09T19:07:04.207Z,8.70
2022-12-09T19:09:34.645Z,7.32
2022-12-09T19:12:22.891Z,8.27
2022-12-09T19:14:49.807Z,6.88
2022-12-09T19:17:18.634Z,8.13
2022-12-09T19:19:47.128Z,7.35
2022-12-09T19:22:14.432Z,6.50
2022-12-09T19:24:43.305Z,7.45
2022-12-09T19:27:10.335Z,6.38
2022-12-09T19:29:40.220Z,6.47
2022-12-09T19:32:23.585Z,7.00
2022-12-09T19:34:53.565Z,7.10
2022-12-09T19:37:20.207Z,6.72
2022-12-09T19:39:46.914Z,6.53
2022-12-09T19:42:14.019Z,6.15
2022-12-09T19:47:27.354Z,7.45
2022-12-09T19:49:53.996Z,6.32
2022-12-09T19:52:20.605Z,6.80
2022-12-09T19:54:47.256Z,7.47
2022-12-09T19:57:13.905Z,7.13
2022-12-09T19:59:40.491Z,8.27
2022-12-09T20:02:11.790Z,7.03
2022-12-09T20:04:48.643Z,6.63
2022-12-09T20:07:15.691Z,7.28
2022-12-09T20:09:42.318Z,7.57
2022-12-09T20:12:09.030Z,7.05
2022-12-09T20:14:35.778Z,7.07
2022-12-09T20:17:02.357Z,6.97
2022-12-09T20:19:29.021Z,7.05
2022-12-09T20:21:55.657Z,6.88
2022-12-09T20:24:22.380Z,8.77
2022-12-09T20:26:49.074Z,7.88
2022-12-09T20:29:15.682Z,8.68
2022-12-09T20:31:42.843Z,8.52
2022-12-09T20:34:14.479Z,8.20
2022-12-09T20:36:43.055Z,9.15
2022-12-09T20:39:18.621Z,9.13
2022-12-09T20:41:46.218Z,9.27
2022-12-09T20:44:14.180Z,8.55
2022-12-09T20:46:45.074Z,8.00
2022-12-09T20:49:11.821Z,8.48
2022-12-09T20:51:40.433Z,8.23
2022-12-09T20:54:08.230Z,7.53
2022-12-09T20:56:35.555Z,8.90
2022-12-09T20:59:02.632Z,8.35
2022-12-09T21:01:31.627Z,8.07
2022-12-09T21:04:00.116Z,7.70
2022-12-09T21:06:30.126Z,7.45
2022-12-09T21:08:59.559Z,7.47
2022-12-09T21:11:26.737Z,6.97
2022-12-09T21:13:57.724Z,8.10
2022-12-09T21:16:27.948Z,8.80
2022-12-09T21:18:57.008Z,9.90
2022-12-09T21:21:25.811Z,7.80
2022-12-09T21:23:54.445Z,8.23
2022-12-09T21:26:23.436Z,8.77
2022-12-09T21:28:50.961Z,9.85
2022-12-09T21:31:21.574Z,8.35
2022-12-09T21:33:50.266Z,8.18
2022-12-09T21:36:29.802Z,7.63
2022-12-09T21:38:56.560Z,7.97
2022-12-09T21:41:25.613Z,8.70
2022-12-09T21:43:54.838Z,8.70
2022-12-09T21:46:28.115Z,7.97
2022-12-09T21:49:01.730Z,8.65
2022-12-09T21:51:30.840Z,8.77
2022-12-09T21:53:57.500Z,8.70
2022-12-09T21:56:26.503Z,8.63
2022-12-09T21:58:56.074Z,7.38
2022-12-09T22:01:25.929Z,7.47
2022-12-09T22:03:52.982Z,7.80
2022-12-09T22:06:20.006Z,7.05
2022-12-09T22:08:46.681Z,9.18
2022-12-09T22:11:16.417Z,7.85
2022-12-09T22:13:43.810Z,7.43
2022-12-09T22:16:13.138Z,8.60
2022-12-09T22:18:41.507Z,7.80
2022-12-09T22:21:24.765Z,7.63
2022-12-09T22:23:58.004Z,7.80
2022-12-09T22:26:25.261Z,7.57
2022-12-09T22:28:52.449Z,7.75
2022-12-09T22:31:22.315Z,7.68
2022-12-09T22:33:50.464Z,8.43
2022-12-09T22:36:17.276Z,8.20
2022-12-09T22:38:44.337Z,7.97
2022-12-09T22:41:20.407Z,9.88
2022-12-09T22:43:48.818Z,7.70
2022-12-09T22:46:18.361Z,7.80
2022-12-09T22:48:45.105Z,8.25
2022-12-09T22:51:14.644Z,8.02
2022-12-09T22:53:41.604Z,9.02
2022-12-09T22:56:09.798Z,7.90
2022-12-09T22:58:36.569Z,8.57
2022-12-09T23:01:09.874Z,8.10
2022-12-09T23:03:36.661Z,8.48
2022-12-09T23:06:03.382Z,8.43
2022-12-09T23:08:30.289Z,8.18
2022-12-09T23:11:05.369Z,8.05
2022-12-09T23:13:35.010Z,8.52
2022-12-09T23:16:07.314Z,7.93
2022-12-09T23:18:35.016Z,7.60
2022-12-09T23:21:19.554Z,8.48
2022-12-09T23:23:46.282Z,9.27
2022-12-09T23:26:15.584Z,8.48
2022-12-09T23:28:45.198Z,8.32
2022-12-09T23:31:13.978Z,8.00
2022-12-09T23:33:42.984Z,7.93
2022-12-09T23:36:13.891Z,7.50
2022-12-09T23:38:41.424Z,9.02
2022-12-09T23:41:09.521Z,8.10
2022-12-09T23:43:38.068Z,9.07
2022-12-09T23:46:15.273Z,8.48
2022-12-09T23:48:42.678Z,10.38
2022-12-09T23:51:11.405Z,8.63
2022-12-09T23:53:38.852Z,8.88
2022-12-09T23:56:06.505Z,7.35
2022-12-09T23:58:33.719Z,9.82
